Latest Weather Observations for Urandangi

IDQ60801

Issued at 12:02 pm EST Thursday 8 December 2016 (issued every 30 minutes, with the page automatically refreshed every 10 minutes)

About weather observations | Map of weather stations | Latest weather observations for QLD | Other Formats
Station Details ID: 037058 Name: URANDANGI AERODROME Lat: -21.60 Lon: 138.37 Height: 178.6 m
Data from the previous 72 hours. | See also: Recent months at Urandangi
Date/Time
EST
Temp
°C
App
Temp
°C
Dew
Point
°C
Rel
Hum
%
Delta-T
°C
Wind Press
QNH
hPa
Press
MSL
hPa
Rain since
9am
mm
Dir  Spd
km/h
Gust
km/h
Spd
kts
Gust
kts
08/12:00pm 39.3 38.0 13.7 22 16.0 S 13 26 7 14 1008.4 1007.1 0.0
08/11:30am 37.6 36.7 13.6 24 14.9 SSE 11 19 6 10 1008.7 1007.4 0.0
08/11:00am 37.0 36.6 13.1 24 14.7 ENE 7 20 4 11 1008.7 1007.4 0.0
08/10:30am 37.0 35.7 13.7 25 14.4 ESE 13 20 7 11 1008.9 1007.6 0.0
08/10:00am 35.8 34.7 14.4 27 13.4 ESE 13 20 7 11 1009.2 1007.9 0.0
08/09:30am 35.0 33.5 14.3 29 12.8 ESE 15 22 8 12 1009.4 1008.1 0.0
08/09:00am 33.8 31.4 13.8 30 12.3 ESE 19 24 10 13 1009.4 1008.1 0.0
08/08:30am 32.8 30.4 14.4 33 11.3 ESE 20 28 11 15 1009.4 1008.1 0.0
08/08:00am 31.9 29.2 14.5 34 10.7 ESE 22 30 12 16 1009.2 1007.9 0.0
08/07:30am 31.3 28.2 14.4 35 10.4 ESE 24 33 13 18 1008.8 1007.5 0.0
08/07:00am 29.4 28.0 14.4 40 9.1 SE 15 20 8 11 1008.7 1007.4 0.0
08/06:30am 28.3 27.2 14.2 42 8.5 SE 13 17 7 9 1008.5 1007.2 0.0
08/06:00am 27.9 26.9 13.4 40 8.7 SE 11 15 6 8 1007.8 1006.5 0.0
08/05:30am 28.1 27.0 13.2 39 8.9 SE 11 15 6 8 1007.6 1006.2 0.0
08/05:00am 26.9 26.1 12.9 42 8.3 SSE 9 13 5 7 1007.3 1005.9 0.0
08/04:30am 27.6 26.6 12.4 39 8.9 SE 9 11 5 6 1007.0 1005.6 0.0
08/04:00am 28.5 27.2 12.4 37 9.5 SE 11 13 6 7 1007.0 1005.6 0.0
08/03:30am 29.0 27.8 12.8 36 9.6 SE 11 17 6 9 1007.1 1005.7 0.0
08/03:00am 29.5 27.9 12.9 36 9.9 SE 13 17 7 9 1007.2 1005.8 0.0
08/02:30am 29.9 28.3 12.8 35 10.2 SE 13 17 7 9 1007.2 1005.8 0.0
08/02:00am 30.5 28.6 12.9 34 10.5 SE 15 22 8 12 1007.2 1005.8 0.0
08/01:30am 31.2 28.9 13.0 33 10.9 SE 17 24 9 13 1007.5 1006.1 0.0
08/01:00am 31.7 29.0 13.0 32 11.3 SSE 19 28 10 15 1007.7 1006.3 0.0
08/12:30am 32.3 29.2 13.5 32 11.4 SSE 22 30 12 16 1007.8 1006.5 0.0
08/12:00am 32.6 29.8 13.3 31 11.7 SSE 20 26 11 14 1008.0 1006.7 0.0
 
Date/Time
EST
Temp
°C
App
Temp
°C
Dew
Point
°C
Rel
Hum
%
Delta-T
°C
Wind Press
QNH
hPa
Press
MSL
hPa
Rain since
9am
mm
Dir  Spd
km/h
Gust
km/h
Spd
kts
Gust
kts
07/11:30pm 33.1 30.3 13.2 30 12.1 SSE 20 30 11 16 1008.3 1007.0 0.0
07/11:00pm 34.7 31.8 12.4 26 13.5 SSE 19 33 10 18 1008.4 1007.1 0.0
07/10:30pm 35.1 32.9 12.1 25 13.8 SE 15 20 8 11 1008.1 1006.8 0.0
07/10:00pm 35.1 32.9 12.1 25 13.9 SSE 15 19 8 10 1007.9 1006.6 0.0
07/09:30pm 35.8 33.0 11.4 23 14.6 SSE 17 22 9 12 1007.5 1006.1 0.0
07/09:00pm 35.7 33.7 11.4 23 14.5 SSE 13 19 7 10 1007.2 1005.8 0.0
07/08:30pm 35.8 33.6 10.8 22 14.8 SSE 13 15 7 8 1007.1 1005.7 0.0
07/08:00pm 36.9 34.8 11.0 21 15.5 SSE 13 17 7 9 1006.9 1005.5 0.0
07/07:30pm 38.1 35.3 11.2 20 16.1 SSE 17 24 9 13 1006.8 1005.4 0.0
07/07:00pm 39.2 36.2 10.5 18 17.2 SE 17 26 9 14 1006.6 1005.2 0.0
07/06:30pm 39.9 36.8 10.2 17 17.7 SE 17 24 9 13 1006.4 1005.0 0.0
07/06:00pm 40.8 37.2 10.0 16 18.4 SE 19 30 10 16 1006.3 1004.9 0.0
07/05:30pm 41.0 37.5 10.2 16 18.4 SSE 19 28 10 15 1006.3 1004.9 0.0
07/05:00pm 41.3 38.2 10.4 16 18.6 SE 17 28 9 15 1006.5 1005.1 0.0
07/04:30pm 40.8 38.3 10.9 17 18.1 SE 15 28 8 15 1006.5 1005.1 0.0
07/04:00pm 41.2 38.5 10.4 16 18.5 SE 15 30 8 16 1006.7 1005.3 0.0
07/03:30pm 41.5 38.4 11.5 17 18.3 SE 19 35 10 19 1007.0 1005.6 0.0
07/03:00pm 40.8 37.3 10.9 17 18.1 ESE 20 33 11 18 1007.6 1006.2 0.0
07/02:30pm 40.0 35.4 11.2 18 17.4 SSE 26 43 14 23 1007.9 1006.6 0.0
07/02:00pm 40.1 36.0 11.3 18 17.5 SE 24 39 13 21 1008.3 1007.0 0.0
07/01:30pm 39.5 35.4 11.6 19 16.9 SSE 24 37 13 20 1008.9 1007.6 0.0
07/01:00pm 39.4 36.5 12.3 20 16.6 ESE 19 33 10 18 1009.3 1008.0 0.0
07/12:30pm 38.7 35.3 12.5 21 16.1 SE 22 33 12 18 1009.9 1008.6 0.0
07/12:00pm 39.2 35.2 12.9 21 16.3 SE 26 41 14 22 1010.4 1009.1 0.0
07/11:30am 37.8 34.0 12.4 22 15.5 ESE 24 35 13 19 1011.1 1009.8 0.0
07/11:00am 36.9 32.0 12.4 23 14.9 SE 30 43 16 23 1011.4 1010.1 0.0
07/10:30am 36.2 31.3 12.4 24 14.4 SE 30 43 16 23 1012.2 1010.8 0.0
07/10:00am 35.4 30.1 12.4 25 13.9 SE 32 43 17 23 1012.6 1011.2 0.0
07/09:30am 35.0 29.7 13.2 27 13.3 SE 33 46 18 25 1012.9 1011.6 0.0
07/09:00am 33.6 28.3 12.6 28 12.6 SE 32 44 17 24 1012.8 1011.5 0.0
07/08:30am 32.5 26.7 12.7 30 11.9 SE 35 48 19 26 1012.7 1011.3 0.0
07/08:00am 31.6 26.6 13.4 33 11.0 SE 32 50 17 27 1012.5 1011.1 0.0
07/07:56am 31.3 26.6 13.1 33 10.9 SE 30 50 16 27 1012.5 1011.1 0.0
07/07:30am 30.2 25.6 13.5 36 10.1 SE 30 41 16 22 1012.3 1010.9 0.0
07/07:00am 29.5 26.2 14.1 39 9.3 SSE 24 32 13 17 1012.1 1010.7 0.0
07/06:30am 28.6 26.7 14.1 41 8.8 SSE 17 28 9 15 1011.6 1010.3 0.0
07/06:00am 28.4 26.3 14.6 43 8.4 SE 19 26 10 14 1011.2 1009.9 0.0
07/05:30am 28.7 26.5 14.9 43 8.4 SE 20 28 11 15 1011.0 1009.7 0.0
07/05:00am 28.8 26.6 15.0 43 8.5 SE 20 28 11 15 1010.6 1009.3 0.0
07/04:30am 29.2 27.3 15.3 42 8.6 SSE 19 26 10 14 1010.1 1008.8 0.0
07/04:00am 29.7 27.1 15.8 43 8.7 SE 24 33 13 18 1010.0 1008.7 0.0
07/03:30am 30.2 26.8 15.9 42 8.9 SE 28 39 15 21 1009.8 1008.5 0.0
07/03:00am 30.7 27.0 15.9 40 9.3 SE 30 44 16 24 1009.8 1008.5 0.0
07/02:30am 30.7 27.7 15.9 40 9.3 SE 26 35 14 19 1009.7 1008.4 0.0
07/02:00am 31.2 26.8 15.6 39 9.7 SE 33 48 18 26 1009.7 1008.4 0.0
07/01:53am 31.4 27.6 15.8 39 9.8 SE 30 48 16 26 1009.8 1008.5 0.0
07/01:30am 31.7 28.5 15.2 36 10.3 SE 26 35 14 19 1009.8 1008.5 0.0
07/01:00am 32.1 27.9 15.6 37 10.3 SE 32 46 17 25 1009.8 1008.5 0.0
07/12:32am 32.6 28.2 15.1 34 10.9 SE 32 52 17 28 1009.8 1008.5 0.0
07/12:30am 32.7 28.3 15.2 34 10.9 SE 32 48 17 26 1009.7 1008.4 0.0
07/12:00am 33.2 29.2 15.2 33 11.3 SSE 30 44 16 24 1009.7 1008.4 0.0
 
Date/Time
EST
Temp
°C
App
Temp
°C
Dew
Point
°C
Rel
Hum
%
Delta-T
°C
Wind Press
QNH
hPa
Press
MSL
hPa
Rain since
9am
mm
Dir  Spd
km/h
Gust
km/h
Spd
kts
Gust
kts
06/11:31pm 34.3 29.5 14.7 30 12.2 SSE 33 57 18 31 1009.3 1008.0 0.0
06/11:30pm 34.4 29.7 14.8 30 12.2 SSE 33 48 18 26 1009.4 1008.1 0.0
06/11:00pm 35.2 31.9 13.9 27 13.2 SSE 24 39 13 21 1009.4 1008.1 0.0
06/10:30pm 34.7 31.9 9.9 22 14.4 S 15 24 8 13 1009.2 1007.9 0.0
06/10:00pm 30.5 27.7 7.0 23 12.8 SSE 11 11 6 6 1008.6 1007.3 0.0
06/09:30pm 31.3 29.9 5.7 20 13.7 SE 2 4 1 2 1008.4 1007.1 0.0
06/09:00pm 32.5 31.2 5.9 19 14.4 E 2 2 1 1 1008.2 1006.9 0.0
06/08:30pm 33.6 32.1 5.2 17 15.2 NE 2 6 1 3 1008.0 1006.7 0.0
06/08:00pm 36.1 34.5 6.3 16 16.5 N 4 6 2 3 1007.7 1006.3 0.0
06/07:30pm 38.5 37.4 5.2 13 18.3 CALM 0 2 0 1 1007.6 1006.2 0.0
06/07:00pm 39.9 37.8 3.9 11 19.6 N 4 7 2 4 1007.4 1006.0 0.0
06/06:30pm 41.5 39.7 3.7 10 20.7 NW 2 6 1 3 1007.3 1005.9 0.0
06/06:00pm 41.7 39.0 3.9 10 20.8 N 7 15 4 8 1007.2 1005.8 0.0
06/05:30pm 41.8 39.2 4.0 10 20.8 N 7 15 4 8 1007.1 1005.7 0.0
06/05:00pm 42.1 39.1 4.2 10 21.0 NNE 9 15 5 8 1007.2 1005.8 0.0
06/04:30pm 42.5 40.0 4.5 10 21.1 NNE 7 19 4 10 1007.3 1005.9 0.0
06/04:00pm 42.2 38.4 5.6 11 20.7 NE 15 24 8 13 1007.5 1006.1 0.0
06/03:30pm 41.7 37.9 3.9 10 20.7 E 13 22 7 12 1007.8 1006.5 0.0
06/03:00pm 42.1 39.4 5.6 11 20.6 ESE 9 22 5 12 1008.1 1006.8 0.0
06/02:30pm 42.5 39.9 5.9 11 20.7 NE 9 20 5 11 1008.5 1007.2 0.0
06/02:00pm 41.5 39.0 6.4 12 20.0 ESE 9 17 5 9 1009.0 1007.7 0.0
06/01:30pm 42.1 39.4 5.6 11 20.6 NE 9 19 5 10 1009.5 1008.2 0.0
06/01:00pm 41.1 38.7 7.2 13 19.5 NNW 9 19 5 10 1010.1 1008.8 0.0
06/12:30pm 40.6 38.4 7.9 14 18.9 ENE 9 19 5 10 1010.5 1009.2 0.0
06/12:00pm 40.2 38.8 9.6 16 18.1 SSE 7 15 4 8 1011.0 1009.7 0.0
06/11:30am 38.5 37.0 9.1 17 17.1 NNE 7 11 4 6 1011.5 1010.2 0.0
06/11:00am 38.3 36.6 9.8 18 16.8 SSW 9 17 5 9 1012.1 1010.7 0.0
06/10:30am 38.9 37.7 10.3 18 17.0 SSE 7 15 4 8 1012.4 1011.0 0.0
06/10:00am 37.6 35.7 9.2 18 16.5 SSW 9 17 5 9 1012.9 1011.6 0.0
06/09:30am 37.0 34.9 9.6 19 16.0 SSW 11 19 6 10 1013.1 1011.8 0.0
06/09:00am 36.0 34.4 10.2 21 15.1 WSW 9 17 5 9 1013.1 1011.8 0.0
06/08:30am 34.5 33.3 9.7 22 14.3 W 6 11 3 6 1013.2 1011.9 0.0
06/08:00am 32.3 31.0 9.2 24 13.1 WSW 6 9 3 5 1013.3 1012.0 0.0
06/07:30am 29.7 26.1 8.2 26 11.9 S 17 35 9 19 1013.1 1011.8 0.0
06/07:00am 28.4 26.8 8.1 28 11.1 NW 6 7 3 4 1011.9 1010.6 0.0
06/06:30am 25.1 24.0 6.8 31 9.6 ENE 2 4 1 2 1011.3 1010.0 0.0
06/06:00am 25.3 22.8 6.5 30 9.9 NNW 9 11 5 6 1010.9 1009.6 0.0
06/05:30am 26.5 23.2 6.5 28 10.5 NNW 13 15 7 8 1010.5 1009.2 0.0
06/05:00am 26.2 23.3 6.3 28 10.5 NNW 11 13 6 7 1010.1 1008.8 0.0
06/04:30am 26.7 23.4 6.2 27 10.8 NNW 13 13 7 7 1009.9 1008.6 0.0
06/04:00am 27.0 23.7 6.4 27 10.9 NNW 13 13 7 7 1009.7 1008.4 0.0
06/03:30am 27.0 24.1 6.4 27 10.9 NNW 11 13 6 7 1009.5 1008.2 0.0
06/03:00am 27.5 24.4 5.7 25 11.4 NNW 11 11 6 6 1009.3 1008.0 0.0
06/02:30am 27.8 24.8 6.0 25 11.5 N 11 13 6 7 1009.3 1008.0 0.0
06/02:00am 28.1 25.1 6.2 25 11.6 N 11 13 6 7 1009.3 1008.0 0.0
06/01:30am 28.1 25.0 5.6 24 11.8 N 11 13 6 7 1009.4 1008.1 0.0
06/01:00am 28.5 25.8 5.4 23 12.1 N 9 11 5 6 1009.5 1008.2 0.0
06/12:30am 30.3 27.2 5.6 21 13.1 N 11 13 6 7 1009.8 1008.5 0.0
06/12:00am 31.9 28.8 5.4 19 14.2 N 11 15 6 8 1009.8 1008.5 0.0
 
Date/Time
EST
Temp
°C
App
Temp
°C
Dew
Point
°C
Rel
Hum
%
Delta-T
°C
Wind Press
QNH
hPa
Press
MSL
hPa
Rain since
9am
mm
Dir  Spd
km/h
Gust
km/h
Spd
kts
Gust
kts
05/11:30pm 33.3 29.7 5.0 17 15.1 N 13 19 7 10 1009.8 1008.5 0.0
05/11:00pm 33.8 29.9 5.4 17 15.3 NNE 15 19 8 10 1009.8 1008.5 0.0
05/10:30pm 34.0 29.9 4.6 16 15.7 N 15 17 8 9 1009.5 1008.2 0.0
05/10:00pm 34.2 30.9 4.8 16 15.8 N 11 15 6 8 1009.1 1007.8 0.0
05/09:30pm 35.3 31.9 5.7 16 16.2 N 13 17 7 9 1008.6 1007.3 0.0
05/09:00pm 34.4 31.5 6.7 18 15.3 N 11 13 6 7 1008.6 1007.3 0.0
05/08:30pm 34.5 32.0 6.7 18 15.4 NNE 9 9 5 5 1008.1 1006.8 0.0
05/08:00pm 36.1 33.9 6.3 16 16.5 NNE 7 11 4 6 1007.8 1006.5 0.0
05/07:30pm 38.1 35.5 6.0 14 17.8 NNE 9 13 5 7 1007.4 1006.0 0.0
05/07:00pm 39.9 36.6 6.3 13 19.0 NNE 13 19 7 10 1007.1 1005.7 0.0
05/06:30pm 40.5 37.0 5.6 12 19.5 NE 13 19 7 10 1006.7 1005.3 0.0
05/06:00pm 41.0 37.6 6.0 12 19.8 NNE 13 24 7 13 1006.5 1005.1 0.0
05/05:30pm 42.0 39.1 6.7 12 20.2 NE 11 20 6 11 1006.6 1005.2 0.0
05/05:00pm 41.3 36.8 6.2 12 19.9 NE 19 30 10 16 1006.7 1005.3 0.0
05/04:30pm 42.0 38.4 6.7 12 20.2 N 15 22 8 12 1006.8 1005.4 0.0
05/04:00pm 43.0 39.3 6.2 11 21.0 NNE 15 35 8 19 1007.1 1005.7 0.0
05/03:30pm 42.5 40.4 5.9 11 20.7 N 6 15 3 8 1007.5 1006.1 0.0
05/03:00pm 42.5 37.3 7.1 12 20.4 N 24 43 13 23 1007.9 1006.6 0.0
05/02:30pm 42.2 38.0 5.6 11 20.6 N 17 30 9 16 1008.2 1006.9 0.0
05/02:00pm 43.2 39.9 6.4 11 21.1 NNW 13 30 7 16 1008.7 1007.4 0.0
05/01:30pm 42.7 39.7 6.0 11 20.8 NE 11 32 6 17 1009.1 1007.8 0.0
05/01:00pm 41.2 37.7 7.3 13 19.5 N 15 32 8 17 1009.5 1008.2 0.0
05/12:30pm 40.7 38.3 6.9 13 19.3 NE 9 28 5 15 1009.9 1008.6 0.0

Other Formats:

Comma delimited format used in spreadsheet applications
http://www.bom.gov.au/fwo/IDQ60801/IDQ60801.94344.axf

JavaScript Object Notation format (JSON) in row-major order
http://www.bom.gov.au/fwo/IDQ60801/IDQ60801.94344.json